^^
Lisbon, NH - Weather Station Historical Data
 
Daily Summary for September 20, 2021 Units:  English    Metric   Both
Daily Weekly Monthly Yearly
  Current: High: Low: Average:
Temperature: 73.3 °F 73.4 °F 45.4 °F 53.3 °F
Dew Point: 54.3 °F 57.7 °F 45.4 °F 49.6 °F
Humidity: 51.4% 100% 51.4% 90%
Wind Speed: 2.4mph 4.1mph 0mph 1.1mph
Wind Gust: 6mph 9mph - -
WindSSW - - SE
Pressure: 30.28 in 30.37 in 30.24 in -
Precipitation: 0.00 in      
 
 
Tabular Data for September 20, 2021
Time Temperature Dew Point Pressure Wind Wind Speed Wind Gust Humidity Rainfall Rate (Hourly) solar
00:04 48.6 °F 48.6 °F 30.24 in Calm     100% 0.00 in 0 W/m2
00:09 48.6 °F 48.6 °F 30.24 in Calm   1 mph 100% 0.00 in 0 W/m2
00:14 48.6 °F 48.6 °F 30.24 in Calm     100% 0.00 in 0 W/m2
00:19 48.6 °F 48.6 °F 30.24 in Calm     100% 0.00 in 0 W/m2
00:24 48.6 °F 48.6 °F 30.24 in Calm     100% 0.00 in 0 W/m2
00:29 48.5 °F 48.5 °F 30.25 in Calm     100% 0.00 in 0 W/m2
00:34 48.4 °F 48.4 °F 30.25 in Calm     100% 0.00 in 0 W/m2
00:39 48.2 °F 48.2 °F 30.25 in Calm     100% 0.00 in 0 W/m2
00:44 48.1 °F 48.1 °F 30.25 in Calm     100% 0.00 in 0 W/m2
00:49 48 °F 48 °F 30.25 in Calm     100% 0.00 in 0 W/m2
00:54 47.9 °F 47.9 °F 30.25 in Calm     100% 0.00 in 0 W/m2
00:59 47.7 °F 47.7 °F 30.25 in Calm     100% 0.00 in 0 W/m2
01:04 47.7 °F 47.7 °F 30.25 in Calm     100% 0.00 in 0 W/m2
01:09 47.6 °F 47.6 °F 30.25 in Calm     100% 0.00 in 0 W/m2
01:14 47.6 °F 47.6 °F 30.25 in Calm     100% 0.00 in 0 W/m2
01:19 47.5 °F 47.5 °F 30.25 in Calm     100% 0.00 in 0 W/m2
01:24 47.4 °F 47.4 °F 30.25 in Calm   1 mph 100% 0.00 in 0 W/m2
01:29 47.3 °F 47.3 °F 30.26 in North 0.1 mph 1 mph 100% 0.00 in 0 W/m2
01:34 47.3 °F 47.3 °F 30.26 in Calm   1 mph 100% 0.00 in 0 W/m2
01:39 47.1 °F 47.1 °F 30.26 in Calm     100% 0.00 in 0 W/m2
01:44 47.1 °F 47.1 °F 30.27 in Calm     100% 0.00 in 0 W/m2
01:49 47 °F 47 °F 30.27 in Calm     100% 0.00 in 0 W/m2
01:54 47 °F 47 °F 30.27 in Calm     100% 0.00 in 0 W/m2
01:59 47 °F 47 °F 30.27 in Calm     100% 0.00 in 0 W/m2
02:04 47 °F 47 °F 30.27 in Calm     100% 0.00 in 0 W/m2
02:09 47 °F 47 °F 30.27 in Calm     100% 0.00 in 0 W/m2
02:14 47 °F 47 °F 30.27 in Calm     100% 0.00 in 0 W/m2
02:19 47 °F 47 °F 30.27 in Calm     100% 0.00 in 0 W/m2
02:24 47 °F 47 °F 30.27 in Calm     100% 0.00 in 0 W/m2
02:29 47 °F 47 °F 30.27 in Calm     100% 0.00 in 0 W/m2
02:34 47 °F 47 °F 30.27 in Calm     100% 0.00 in 0 W/m2
02:39 47 °F 47 °F 30.27 in Calm     100% 0.00 in 0 W/m2
02:44 47 °F 47 °F 30.27 in Calm     100% 0.00 in 0 W/m2
02:49 47 °F 47 °F 30.26 in NE 0.5 mph 2 mph 100% 0.00 in 0 W/m2
02:54 47 °F 47 °F 30.26 in NE 1 mph 2 mph 100% 0.00 in 0 W/m2
02:59 47 °F 47 °F 30.27 in NE 0.6 mph 2 mph 100% 0.00 in 0 W/m2
03:04 46.9 °F 46.9 °F 30.27 in NE 0.3 mph 1 mph 100% 0.00 in 0 W/m2
03:09 46.8 °F 46.8 °F 30.27 in Calm     100% 0.00 in 0 W/m2
03:14 46.7 °F 46.7 °F 30.27 in Calm     100% 0.00 in 0 W/m2
03:19 46.7 °F 46.7 °F 30.27 in Calm     100% 0.00 in 0 W/m2
03:24 46.7 °F 46.7 °F 30.27 in Calm     100% 0.00 in 0 W/m2
03:29 46.5 °F 46.5 °F 30.27 in Calm     100% 0.00 in 0 W/m2
03:34 46.5 °F 46.5 °F 30.27 in Calm     100% 0.00 in 0 W/m2
03:39 46.5 °F 46.5 °F 30.27 in Calm     100% 0.00 in 0 W/m2
03:44 46.6 °F 46.6 °F 30.27 in Calm     100% 0.00 in 0 W/m2
03:49 46.7 °F 46.7 °F 30.27 in Calm     100% 0.00 in 0 W/m2
03:54 46.8 °F 46.8 °F 30.27 in Calm     100% 0.00 in 0 W/m2
03:59 46.7 °F 46.7 °F 30.28 in Calm     100% 0.00 in 0 W/m2
04:04 46.7 °F 46.7 °F 30.28 in Calm     100% 0.00 in 0 W/m2
04:09 46.7 °F 46.7 °F 30.28 in Calm     100% 0.00 in 0 W/m2
04:14 46.8 °F 46.8 °F 30.28 in Calm   1 mph 100% 0.00 in 0 W/m2
04:19 46.8 °F 46.8 °F 30.28 in Calm   1 mph 100% 0.00 in 0 W/m2
04:24 46.8 °F 46.8 °F 30.28 in Calm   1 mph 100% 0.00 in 0 W/m2
04:29 46.8 °F 46.8 °F 30.28 in East 0.3 mph 2 mph 100% 0.00 in 0 W/m2
04:34 46.7 °F 46.7 °F 30.28 in Calm   1 mph 100% 0.00 in 0 W/m2
04:39 46.7 °F 46.7 °F 30.28 in Calm   1 mph 100% 0.00 in 0 W/m2
04:44 46.7 °F 46.7 °F 30.28 in Calm     100% 0.00 in 0 W/m2
04:49 46.7 °F 46.7 °F 30.28 in Calm     100% 0.00 in 0 W/m2
04:54 46.7 °F 46.7 °F 30.28 in Calm     100% 0.00 in 0 W/m2
04:59 46.7 °F 46.7 °F 30.29 in ENE 0.1 mph 2 mph 100% 0.00 in 0 W/m2
05:04 46.7 °F 46.7 °F 30.29 in ENE 0.5 mph 2 mph 100% 0.00 in 0 W/m2
05:09 46.8 °F 46.8 °F 30.29 in ENE 1.5 mph 3 mph 100% 0.00 in 0 W/m2
05:14 46.8 °F 46.8 °F 30.30 in ENE 1.3 mph 3 mph 100% 0.00 in 0 W/m2
05:19 46.8 °F 46.8 °F 30.30 in ENE 1.4 mph 3 mph 100% 0.00 in 0 W/m2
05:24 46.8 °F 46.8 °F 30.30 in ENE 1.3 mph 3 mph 100% 0.00 in 0 W/m2
05:29 46.7 °F 46.7 °F 30.30 in ENE 1.3 mph 3 mph 100% 0.00 in 0 W/m2
05:34 46.4 °F 46.4 °F 30.30 in ENE 0.9 mph 2 mph 100% 0.00 in 0 W/m2
05:39 46.4 °F 46.4 °F 30.30 in ENE 0.8 mph 2 mph 100% 0.00 in 0 W/m2
05:44 46.4 °F 46.4 °F 30.31 in ENE 0.3 mph 2 mph 100% 0.00 in 0 W/m2
05:49 46.4 °F 46.4 °F 30.31 in NE 0.4 mph 2 mph 100% 0.00 in 0 W/m2
05:54 46.4 °F 46.4 °F 30.31 in NE 0.4 mph 2 mph 100% 0.00 in 0 W/m2
05:59 46.4 °F 46.4 °F 30.31 in ENE 1 mph 2 mph 100% 0.00 in 0 W/m2
06:04 46.3 °F 46.3 °F 30.31 in ENE 1.2 mph 2 mph 100% 0.00 in 0 W/m2
06:09 46.4 °F 46.4 °F 30.31 in ENE 0.1 mph 2 mph 100% 0.00 in 0 W/m2
06:14 46.5 °F 46.5 °F 30.32 in Calm     100% 0.00 in 0 W/m2
06:19 46.5 °F 46.5 °F 30.32 in ENE 0.6 mph 2 mph 100% 0.00 in 0 W/m2
06:24 46.5 °F 46.5 °F 30.32 in ENE 1.1 mph 3 mph 100% 0.00 in 0 W/m2
06:29 46.5 °F 46.5 °F 30.32 in ENE 2 mph 5 mph 100% 0.00 in 0 W/m2
06:34 46.4 °F 46.4 °F 30.32 in NE 1.6 mph 3 mph 100% 0.00 in 5 W/m2
06:39 46.4 °F 46.4 °F 30.32 in NE 1.2 mph 3 mph 100% 0.00 in 5 W/m2
06:44 46.4 °F 46.4 °F 30.32 in ENE 2.1 mph 5 mph 100% 0.00 in 7 W/m2
06:49 46.2 °F 46.2 °F 30.32 in ENE 2 mph 5 mph 100% 0.00 in 9 W/m2
06:54 46 °F 46 °F 30.32 in NE 1.6 mph 3 mph 100% 0.00 in 11 W/m2
06:59 45.8 °F 45.8 °F 30.33 in NE 2.5 mph 6 mph 100% 0.00 in 18 W/m2
07:04 45.8 °F 45.8 °F 30.33 in ENE 2.5 mph 5 mph 100% 0.00 in 25 W/m2
07:09 45.8 °F 45.8 °F 30.33 in ENE 2.6 mph 5 mph 100% 0.00 in 25 W/m2
07:14 45.7 °F 45.7 °F 30.34 in ENE 2.8 mph 6 mph 100% 0.00 in 28 W/m2
07:19 45.7 °F 45.7 °F 30.34 in ENE 2.6 mph 6 mph 100% 0.00 in 28 W/m2
07:24 45.5 °F 45.5 °F 30.34 in ENE 2.7 mph 6 mph 100% 0.00 in 35 W/m2
07:29 45.5 °F 45.5 °F 30.34 in ENE 2.9 mph 5 mph 100% 0.00 in 55 W/m2
07:34 45.5 °F 45.5 °F 30.34 in ENE 2.9 mph 6 mph 100% 0.00 in 51 W/m2
07:39 45.4 °F 45.4 °F 30.34 in ENE 2.8 mph 5 mph 100% 0.00 in 58 W/m2
07:44 45.5 °F 45.5 °F 30.35 in ENE 2.8 mph 6 mph 100% 0.00 in 65 W/m2
07:49 45.7 °F 45.7 °F 30.35 in ENE 2.1 mph 5 mph 100% 0.00 in 69 W/m2
07:54 45.8 °F 45.8 °F 30.35 in ENE 2.4 mph 5 mph 100% 0.00 in 69 W/m2
07:59 46 °F 46 °F 30.35 in ENE 2.1 mph 5 mph 100% 0.00 in 81 W/m2
08:04 46.2 °F 46.2 °F 30.35 in ENE 2.1 mph 4 mph 100% 0.00 in 123 W/m2
08:09 46.4 °F 46.4 °F 30.35 in ENE 1.7 mph 3 mph 100% 0.00 in 176 W/m2
08:14 46.6 °F 46.6 °F 30.35 in ENE 1.3 mph 3 mph 100% 0.00 in 220 W/m2
08:19 46.8 °F 46.8 °F 30.35 in ESE 1 mph 3 mph 100% 0.00 in 157 W/m2
08:24 46.7 °F 46.7 °F 30.35 in East 0.4 mph 2 mph 100% 0.00 in 130 W/m2
08:29 47 °F 47 °F 30.36 in NE 0.5 mph 2 mph 100% 0.00 in 130 W/m2
08:34 47.5 °F 47.5 °F 30.36 in ENE 0.6 mph 2 mph 100% 0.00 in 167 W/m2
08:39 47.9 °F 47.9 °F 30.36 in ENE 0.9 mph 2 mph 100% 0.00 in 176 W/m2
08:44 48.2 °F 48.2 °F 30.36 in NE 0.9 mph 2 mph 100% 0.00 in 172 W/m2
08:49 48.3 °F 48.3 °F 30.36 in ENE 0.8 mph 3 mph 100% 0.00 in 174 W/m2
08:54 48.6 °F 48.6 °F 30.36 in ENE 0.9 mph 3 mph 100% 0.00 in 179 W/m2
08:59 48.7 °F 48.7 °F 30.36 in ENE 1.6 mph 4 mph 100% 0.00 in 220 W/m2
09:04 49 °F 49 °F 30.36 in ENE 1.7 mph 4 mph 100% 0.00 in 245 W/m2
09:09 49.4 °F 49.4 °F 30.36 in NE 1.5 mph 3 mph 100% 0.00 in 313 W/m2
09:14 49.8 °F 49.8 °F 30.37 in NE 1.5 mph 4 mph 100% 0.00 in 320 W/m2
09:19 50.6 °F 50.6 °F 30.37 in NE 1.2 mph 3 mph 100% 0.00 in 596 W/m2
09:24 51.8 °F 51.8 °F 30.37 in ENE 1.9 mph 4 mph 100% 0.00 in 604 W/m2
09:29 52.9 °F 52.9 °F 30.37 in NE 2.1 mph 4 mph 100% 0.00 in 516 W/m2
09:34 54 °F 54 °F 30.37 in ENE 1.5 mph 5 mph 100% 0.00 in 526 W/m2
09:39 54.8 °F 54.4 °F 30.37 in NE 2.4 mph 6 mph 98.4% 0.00 in 535 W/m2
09:44 55.4 °F 53.9 °F 30.37 in NE 1.3 mph 3 mph 94.6% 0.00 in 552 W/m2
09:49 55.8 °F 53.4 °F 30.36 in ENE 1.2 mph 3 mph 91.5% 0.00 in 565 W/m2
09:54 55.6 °F 52.6 °F 30.36 in ESE 0.9 mph 2 mph 89.4% 0.00 in 581 W/m2
09:59 55.7 °F 52.2 °F 30.36 in SE 1.3 mph 3 mph 88% 0.00 in 591 W/m2
10:04 56.1 °F 52.3 °F 30.36 in ENE 1.5 mph 3 mph 87% 0.00 in 602 W/m2
10:09 56.2 °F 51.8 °F 30.36 in East 1.5 mph 2 mph 85.2% 0.00 in 611 W/m2
10:14 56.4 °F 51.8 °F 30.36 in SE 1.5 mph 3 mph 84.4% 0.00 in 621 W/m2
10:19 56.8 °F 51.6 °F 30.36 in ESE 1.4 mph 3 mph 82.7% 0.00 in 632 W/m2
10:24 57.4 °F 51.8 °F 30.36 in SSE 1.4 mph 3 mph 81.7% 0.00 in 640 W/m2
10:29 57.9 °F 52.1 °F 30.36 in South 1.8 mph 3 mph 80.9% 0.00 in 649 W/m2
10:34 58.4 °F 52.2 °F 30.36 in East 1.4 mph 3 mph 79.9% 0.00 in 658 W/m2
10:39 58.9 °F 52.3 °F 30.36 in SSE 1.2 mph 3 mph 78.7% 0.00 in 667 W/m2
10:44 59.5 °F 52.6 °F 30.36 in SSE 1.5 mph 3 mph 77.9% 0.00 in 676 W/m2
10:49 60 °F 52.6 °F 30.35 in South 1.7 mph 3 mph 76.5% 0.00 in 686 W/m2
10:54 60.6 °F 52.8 °F 30.35 in South 1 mph 3 mph 75.6% 0.00 in 693 W/m2
10:59 61.4 °F 52.8 °F 30.35 in SSE 0.8 mph 3 mph 73.5% 0.00 in 700 W/m2
11:04 62 °F 52.9 °F 30.35 in South 1.9 mph 3 mph 72.1% 0.00 in 709 W/m2
11:09 62.6 °F 53.2 °F 30.35 in SSW 2 mph 5 mph 71.5% 0.00 in 714 W/m2
11:14 63 °F 53.5 °F 30.35 in South 2.3 mph 6 mph 71.1% 0.00 in 720 W/m2
11:19 63.5 °F 53.6 °F 30.34 in SSW 2.8 mph 7 mph 70.3% 0.00 in 727 W/m2
11:24 63.6 °F 53.4 °F 30.34 in SSW 2.2 mph 7 mph 69.4% 0.00 in 730 W/m2
11:29 64.1 °F 53.6 °F 30.34 in SSW 1.5 mph 7 mph 68.8% 0.00 in 735 W/m2
11:34 65 °F 53.8 °F 30.33 in SW 3.6 mph 7 mph 66.9% 0.00 in 741 W/m2
11:39 65.3 °F 54 °F 30.33 in SSW 1.6 mph 6 mph 66.8% 0.00 in 743 W/m2
11:44 65.7 °F 54.3 °F 30.33 in SW 4.1 mph 6 mph 66.7% 0.00 in 748 W/m2
11:49 66.1 °F 54.2 °F 30.32 in SSW 3.2 mph 6 mph 65.5% 0.00 in 751 W/m2
11:54 66.2 °F 54.4 °F 30.32 in SSW 3.4 mph 7 mph 65.9% 0.00 in 755 W/m2
11:59 66.5 °F 54.4 °F 30.32 in SSW 3 mph 7 mph 65% 0.00 in 758 W/m2
12:04 67.2 °F 55.4 °F 30.32 in SW 1.3 mph 5 mph 65.9% 0.00 in 760 W/m2
12:09 67.9 °F 55.4 °F 30.32 in SSW 2.9 mph 7 mph 64.2% 0.00 in 762 W/m2
12:14 68.3 °F 55.1 °F 30.32 in SSW 2.1 mph 7 mph 62.7% 0.00 in 764 W/m2
12:19 68.6 °F 55.8 °F 30.31 in SW 1.1 mph 3 mph 63.8% 0.00 in 764 W/m2
12:24 69.2 °F 56.1 °F 30.31 in WSW 1.4 mph 7 mph 62.9% 0.00 in 765 W/m2
12:29 69.5 °F 55.7 °F 30.31 in SSW 2.1 mph 7 mph 61.4% 0.00 in 767 W/m2
12:34 69.9 °F 56.7 °F 30.31 in WSW 1 mph 3 mph 63% 0.00 in 765 W/m2
12:39 70.4 °F 56.1 °F 30.31 in SSW 1 mph 3 mph 60.5% 0.00 in 765 W/m2
12:44 70.8 °F 56.1 °F 30.31 in SW 1.6 mph 6 mph 59.7% 0.00 in 765 W/m2
12:49 71.3 °F 56.7 °F 30.31 in WNW 1 mph 5 mph 60% 0.00 in 765 W/m2
12:54 71.5 °F 56.8 °F 30.31 in West 1 mph 7 mph 59.7% 0.00 in 762 W/m2
12:59 71.6 °F 56.6 °F 30.31 in SW 1.7 mph 7 mph 59.1% 0.00 in 760 W/m2
13:04 71.7 °F 56.2 °F 30.30 in WNW 1.1 mph 6 mph 58.3% 0.00 in 757 W/m2
13:09 72 °F 56.4 °F 30.30 in WSW 1.8 mph 6 mph 58% 0.00 in 753 W/m2
13:14 72.1 °F 56.5 °F 30.30 in SSW 1.6 mph 7 mph 57.8% 0.00 in 750 W/m2
13:19 72.3 °F 56.3 °F 30.30 in NNW 1.3 mph 3 mph 57.1% 0.00 in 744 W/m2
13:24 72.5 °F 56.3 °F 30.30 in WSW 2 mph 6 mph 56.8% 0.00 in 741 W/m2
13:29 72.9 °F 56.9 °F 30.30 in SW 0.8 mph 6 mph 57.2% 0.00 in 737 W/m2
13:34 73.2 °F 56.2 °F 30.29 in WSW 1.5 mph 5 mph 55.2% 0.00 in 732 W/m2
13:39 73 °F 56.6 °F 30.29 in WSW 1 mph 6 mph 56.4% 0.00 in 727 W/m2
13:44 73.1 °F 56.7 °F 30.29 in NW 0.8 mph 3 mph 56.4% 0.00 in 720 W/m2
13:49 73.3 °F 56.8 °F 30.28 in SW 1.6 mph 7 mph 56.2% 0.00 in 713 W/m2
13:54 73.4 °F 57.7 °F 30.28 in NW 1 mph 3 mph 57.9% 0.00 in 706 W/m2
13:59 73.2 °F 56.6 °F 30.28 in WNW 0.8 mph 3 mph 56.2% 0.00 in 699 W/m2
14:04 73 °F 55.8 °F 30.28 in SW 3.1 mph 9 mph 54.9% 0.00 in 690 W/m2
14:09 73 °F 55.5 °F 30.28 in SSW 2 mph 7 mph 54.1% 0.00 in 684 W/m2
14:14 73.3 °F 56.5 °F 30.28 in SW 3 mph 7 mph 55.7% 0.00 in 684 W/m2
14:19 73.3 °F 54.3 °F 30.28 in SSW 2.4 mph 6 mph 51.4% 0.00 in 684 W/m2
Lisbon, New Hampshire, USA
Compliments of Weather Underground - 3.25 mb